createdAt,value
2022-12-18T00:02:16.418Z,-3.98
2022-12-18T00:04:42.888Z,-4.02
2022-12-18T00:07:09.347Z,-4.05
2022-12-18T00:09:40.138Z,-4.07
2022-12-18T00:14:45.189Z,-4.22
2022-12-18T00:17:11.617Z,-4.26
2022-12-18T00:19:38.080Z,-4.30
2022-12-18T00:22:04.561Z,-4.31
2022-12-18T00:24:31.090Z,-4.30
2022-12-18T00:26:57.590Z,-4.31
2022-12-18T00:29:24.083Z,-4.33
2022-12-18T00:31:50.865Z,-4.32
2022-12-18T00:34:17.403Z,-4.35
2022-12-18T00:36:43.968Z,-4.38
2022-12-18T00:39:13.006Z,-4.40
2022-12-18T00:41:57.998Z,-4.38
2022-12-18T00:44:25.684Z,-4.42
2022-12-18T00:46:52.235Z,-4.43
2022-12-18T00:49:20.567Z,-4.46
2022-12-18T00:51:47.852Z,-4.51
2022-12-18T00:54:14.793Z,-4.51
2022-12-18T00:56:49.850Z,-4.52
2022-12-18T00:59:19.012Z,-4.50
2022-12-18T01:01:46.119Z,-4.51
2022-12-18T01:04:12.724Z,-4.52
2022-12-18T01:06:39.302Z,-4.51
2022-12-18T01:09:07.051Z,-4.53
2022-12-18T01:11:36.588Z,-4.56
2022-12-18T01:14:04.933Z,-4.55
2022-12-18T01:16:31.422Z,-4.60
2022-12-18T01:18:58.059Z,-4.55
2022-12-18T01:21:26.602Z,-4.57
2022-12-18T01:23:55.172Z,-4.58
2022-12-18T01:26:24.931Z,-4.59
2022-12-18T01:28:51.834Z,-4.60
2022-12-18T01:31:26.717Z,-4.62
2022-12-18T01:33:56.015Z,-4.64
2022-12-18T01:36:29.760Z,-4.65
2022-12-18T01:38:56.820Z,-4.70
2022-12-18T01:41:26.517Z,-4.71
2022-12-18T01:43:57.871Z,-4.71
2022-12-18T01:46:26.024Z,-4.73
2022-12-18T01:49:02.208Z,-4.73
2022-12-18T01:51:31.358Z,-4.71
2022-12-18T01:53:59.639Z,-4.72
2022-12-18T01:56:26.182Z,-4.77
2022-12-18T01:59:07.494Z,-4.81
2022-12-18T02:01:34.202Z,-4.83
2022-12-18T02:04:22.966Z,-4.88
2022-12-18T02:06:59.054Z,-4.91
2022-12-18T02:09:35.379Z,-4.94
2022-12-18T02:12:14.891Z,-4.95
2022-12-18T02:14:59.927Z,-4.98
2022-12-18T02:17:43.905Z,-5.03
2022-12-18T02:20:26.471Z,-5.03
2022-12-18T02:23:06.738Z,-5.03
2022-12-18T02:26:03.221Z,-5.05
2022-12-18T02:28:34.784Z,-5.06
2022-12-18T02:31:09.077Z,-5.06
2022-12-18T02:33:38.389Z,-5.09
2022-12-18T02:36:06.798Z,-5.10
2022-12-18T02:38:34.725Z,-5.12
2022-12-18T02:41:08.474Z,-5.14
2022-12-18T02:43:36.255Z,-5.16
2022-12-18T02:46:37.743Z,-5.15
2022-12-18T02:49:22.307Z,-5.16
2022-12-18T02:51:54.382Z,-5.19
2022-12-18T02:54:37.882Z,-5.20
2022-12-18T02:57:23.421Z,-5.23
2022-12-18T03:00:13.363Z,-5.23
2022-12-18T03:02:48.616Z,-5.25
2022-12-18T03:05:23.775Z,-5.27
2022-12-18T03:08:04.131Z,-5.31
2022-12-18T03:10:43.479Z,-5.36
2022-12-18T03:13:14.452Z,-5.40
2022-12-18T03:15:46.590Z,-5.39
2022-12-18T03:18:22.883Z,-5.38
2022-12-18T03:20:51.901Z,-5.40
2022-12-18T03:23:26.490Z,-5.43
2022-12-18T03:25:56.781Z,-5.45
2022-12-18T03:28:28.304Z,-5.49
2022-12-18T03:31:03.037Z,-5.51
2022-12-18T03:33:41.850Z,-5.55
2022-12-18T03:36:08.996Z,-5.56
2022-12-18T03:38:35.848Z,-5.59
2022-12-18T03:41:12.812Z,-5.61
2022-12-18T03:44:13.351Z,-5.61
2022-12-18T03:47:08.893Z,-5.62
2022-12-18T03:49:44.441Z,-5.63
2022-12-18T03:52:18.547Z,-5.68
2022-12-18T03:54:47.136Z,-5.71
2022-12-18T03:57:23.908Z,-5.73
2022-12-18T04:00:05.573Z,-5.76
2022-12-18T04:02:53.519Z,-5.76
2022-12-18T04:05:28.134Z,-5.77
2022-12-18T04:07:57.194Z,-5.80
2022-12-18T04:10:23.866Z,-5.81
2022-12-18T04:12:50.875Z,-5.83
2022-12-18T04:15:17.565Z,-5.86
2022-12-18T04:17:53.426Z,-5.89
2022-12-18T04:20:23.392Z,-5.91
2022-12-18T04:22:50.171Z,-5.94
2022-12-18T04:25:19.357Z,-5.96
2022-12-18T04:28:04.993Z,-5.98
2022-12-18T04:30:32.002Z,-5.99
2022-12-18T04:32:59.257Z,-6.01
2022-12-18T04:35:26.050Z,-6.02
2022-12-18T04:37:52.515Z,-6.03
2022-12-18T04:40:19.097Z,-6.03
2022-12-18T04:42:47.880Z,-6.08
2022-12-18T04:45:14.637Z,-6.09
2022-12-18T04:47:41.136Z,-6.08
2022-12-18T04:50:08.001Z,-6.09
2022-12-18T04:52:34.480Z,-6.09
2022-12-18T04:55:01.000Z,-6.11
2022-12-18T04:57:27.506Z,-6.11
2022-12-18T04:59:53.906Z,-6.13
2022-12-18T05:02:20.528Z,-6.13
2022-12-18T05:04:47.097Z,-6.13
2022-12-18T05:07:13.600Z,-6.12
2022-12-18T05:09:40.033Z,-6.13
2022-12-18T05:12:06.676Z,-6.13
2022-12-18T05:14:33.199Z,-6.14
2022-12-18T05:17:01.214Z,-6.14
2022-12-18T05:19:27.929Z,-6.16
2022-12-18T05:21:54.403Z,-6.16
2022-12-18T05:24:20.872Z,-6.17
2022-12-18T05:26:47.355Z,-6.17
2022-12-18T05:29:14.187Z,-6.19
2022-12-18T05:31:41.214Z,-6.19
2022-12-18T05:34:09.474Z,-6.18
2022-12-18T05:36:37.128Z,-6.17
2022-12-18T05:39:04.138Z,-6.18
2022-12-18T05:41:30.925Z,-6.18
2022-12-18T05:43:57.691Z,-6.18
2022-12-18T05:46:25.459Z,-6.19
2022-12-18T05:48:52.118Z,-6.19
2022-12-18T05:51:21.139Z,-6.18
2022-12-18T05:53:48.195Z,-6.19
2022-12-18T05:56:21.660Z,-6.20
2022-12-18T05:58:51.510Z,-6.21
2022-12-18T06:01:20.780Z,-6.22
2022-12-18T06:03:47.883Z,-6.23
2022-12-18T06:06:15.700Z,-6.24
2022-12-18T06:08:46.180Z,-6.24
2022-12-18T06:11:14.165Z,-6.24
2022-12-18T06:13:40.935Z,-6.26
2022-12-18T06:16:09.044Z,-6.28
2022-12-18T06:18:39.058Z,-6.27
2022-12-18T06:21:05.663Z,-6.29
2022-12-18T06:23:32.126Z,-6.32
2022-12-18T06:25:58.798Z,-6.34
2022-12-18T06:28:25.467Z,-6.34
2022-12-18T06:30:52.012Z,-6.36
2022-12-18T06:33:18.606Z,-6.38
2022-12-18T06:35:45.058Z,-6.41
2022-12-18T06:38:11.657Z,-6.42
2022-12-18T06:40:40.007Z,-6.42
2022-12-18T06:43:07.147Z,-6.44
2022-12-18T06:45:33.768Z,-6.45
2022-12-18T06:48:00.388Z,-6.49
2022-12-18T06:50:27.030Z,-6.49
2022-12-18T06:52:53.446Z,-6.51
2022-12-18T06:55:19.896Z,-6.51
2022-12-18T06:57:46.313Z,-6.51
2022-12-18T07:00:13.217Z,-6.52
2022-12-18T07:02:39.994Z,-6.53
2022-12-18T07:05:10.677Z,-6.55
2022-12-18T07:07:37.978Z,-6.55
2022-12-18T07:10:05.115Z,-6.56
2022-12-18T07:12:31.572Z,-6.56
2022-12-18T07:14:58.037Z,-6.58
2022-12-18T07:17:24.734Z,-6.60
2022-12-18T07:19:51.162Z,-6.57
2022-12-18T07:22:17.659Z,-6.57
2022-12-18T07:24:44.248Z,-6.57
2022-12-18T07:27:10.659Z,-6.55
2022-12-18T07:29:37.203Z,-6.54
2022-12-18T07:32:04.736Z,-6.56
2022-12-18T07:34:31.205Z,-6.57
2022-12-18T07:36:57.707Z,-6.58
2022-12-18T07:39:24.364Z,-6.57
2022-12-18T07:42:10.816Z,-6.57
2022-12-18T07:44:40.063Z,-6.56
2022-12-18T07:47:10.481Z,-6.59
2022-12-18T07:49:38.797Z,-6.58
2022-12-18T07:52:05.327Z,-6.59
2022-12-18T07:54:31.786Z,-6.57
2022-12-18T07:56:58.347Z,-6.55
2022-12-18T07:59:24.854Z,-6.53
2022-12-18T08:01:51.384Z,-6.51
2022-12-18T08:04:18.145Z,-6.50
2022-12-18T08:06:47.762Z,-6.48
2022-12-18T08:09:14.985Z,-6.46
2022-12-18T08:11:41.419Z,-6.45
2022-12-18T08:14:07.995Z,-6.42
2022-12-18T08:16:34.999Z,-6.41
2022-12-18T08:19:01.493Z,-6.38
2022-12-18T08:21:30.604Z,-6.33
2022-12-18T08:23:59.518Z,-6.31
2022-12-18T08:26:29.003Z,-6.27
2022-12-18T08:28:57.088Z,-6.21
2022-12-18T08:31:24.513Z,-6.17
2022-12-18T08:33:52.234Z,-6.14
2022-12-18T08:36:19.315Z,-6.12
2022-12-18T08:38:46.146Z,-6.13
2022-12-18T08:41:15.786Z,-6.11
2022-12-18T08:44:00.566Z,-6.10
2022-12-18T08:46:32.484Z,-6.09
2022-12-18T08:48:59.123Z,-6.03
2022-12-18T08:51:25.647Z,-6.02
2022-12-18T08:53:52.165Z,-6.01
2022-12-18T08:56:18.770Z,-5.98
2022-12-18T08:58:45.273Z,-5.97
2022-12-18T09:01:13.731Z,-5.90
2022-12-18T09:03:40.961Z,-5.82
2022-12-18T09:06:08.217Z,-5.77
2022-12-18T09:08:40.794Z,-5.71
2022-12-18T09:11:13.755Z,-5.63
2022-12-18T09:13:40.534Z,-5.58
2022-12-18T09:16:09.814Z,-5.53
2022-12-18T09:18:36.716Z,-5.46
2022-12-18T09:21:20.833Z,-5.41
2022-12-18T09:23:51.892Z,-5.35
2022-12-18T09:26:18.544Z,-5.31
2022-12-18T09:28:45.096Z,-5.25
2022-12-18T09:31:16.655Z,-5.21
2022-12-18T09:33:43.231Z,-5.15
2022-12-18T09:36:12.284Z,-5.09
2022-12-18T09:38:39.206Z,-5.05
2022-12-18T09:41:20.214Z,-4.99
2022-12-18T09:43:51.760Z,-4.94
2022-12-18T09:46:26.343Z,-4.89
2022-12-18T09:48:55.515Z,-4.82
2022-12-18T09:51:38.356Z,-4.74
2022-12-18T09:54:11.627Z,-4.67
2022-12-18T09:56:42.922Z,-4.60
2022-12-18T09:59:25.021Z,-4.52
2022-12-18T10:01:52.003Z,-4.45
2022-12-18T10:04:19.625Z,-4.38
2022-12-18T10:06:54.432Z,-4.28
2022-12-18T10:09:47.231Z,-4.21
2022-12-18T10:12:41.671Z,-4.11
2022-12-18T10:15:19.369Z,-4.04
2022-12-18T10:17:59.157Z,-3.96
2022-12-18T10:20:34.136Z,-3.90
2022-12-18T10:23:34.921Z,-3.84
2022-12-18T10:26:07.201Z,-3.78
2022-12-18T10:28:37.452Z,-3.73
2022-12-18T10:31:07.108Z,-3.69
2022-12-18T10:33:34.972Z,-3.64
2022-12-18T10:36:01.725Z,-3.58
2022-12-18T10:38:31.422Z,-3.55
2022-12-18T10:41:04.487Z,-3.50
2022-12-18T10:43:34.804Z,-3.45
2022-12-18T10:46:10.389Z,-3.40
2022-12-18T10:48:48.174Z,-3.33
2022-12-18T10:53:54.221Z,-3.27
2022-12-18T10:54:23.703Z,-3.21
2022-12-18T10:56:50.600Z,-3.17
2022-12-18T10:59:18.992Z,-3.11
2022-12-18T11:01:55.701Z,-3.05
2022-12-18T11:04:23.764Z,-3.01
2022-12-18T11:07:11.174Z,-2.96
2022-12-18T11:09:40.282Z,-2.91
2022-12-18T11:12:18.882Z,-2.86
2022-12-18T11:15:00.568Z,-2.81
2022-12-18T11:17:32.730Z,-2.76
2022-12-18T11:20:00.958Z,-2.72
2022-12-18T11:22:28.926Z,-2.66
2022-12-18T11:25:32.741Z,-2.61
2022-12-18T11:27:56.935Z,-2.54
2022-12-18T11:30:38.996Z,-2.50
2022-12-18T11:33:21.649Z,-2.43
2022-12-18T11:35:55.111Z,-2.38
2022-12-18T11:38:25.244Z,-2.35
2022-12-18T11:40:58.473Z,-2.30
2022-12-18T11:43:49.430Z,-2.24
2022-12-18T11:46:24.272Z,-2.20
2022-12-18T11:48:59.786Z,-2.17
2022-12-18T11:51:38.990Z,-2.12
2022-12-18T11:54:16.332Z,-2.10
2022-12-18T11:57:12.334Z,-2.05
2022-12-18T11:59:59.654Z,-2.02
2022-12-18T12:03:00.271Z,-1.99
2022-12-18T12:05:50.995Z,-1.93
2022-12-18T12:08:35.697Z,-1.91
2022-12-18T12:11:26.300Z,-1.90
2022-12-18T12:14:20.700Z,-1.87
2022-12-18T12:17:07.752Z,-1.83
2022-12-18T12:20:00.140Z,-1.80
2022-12-18T12:22:44.066Z,-1.79
2022-12-18T12:25:34.345Z,-1.75
2022-12-18T12:28:15.878Z,-1.70
2022-12-18T12:31:08.644Z,-1.67
2022-12-18T12:33:45.390Z,-1.64
2022-12-18T12:36:20.828Z,-1.62
2022-12-18T12:38:52.879Z,-1.58
2022-12-18T12:41:44.593Z,-1.57
2022-12-18T12:44:19.178Z,-1.55
2022-12-18T12:46:47.217Z,-1.52
2022-12-18T12:49:23.097Z,-1.49
2022-12-18T12:52:18.684Z,-1.47
2022-12-18T12:54:46.445Z,-1.47
2022-12-18T12:57:28.158Z,-1.45
2022-12-18T12:59:57.751Z,-1.43
2022-12-18T13:02:43.295Z,-1.41
2022-12-18T13:05:21.090Z,-1.38
2022-12-18T13:07:54.221Z,-1.36
2022-12-18T13:10:32.194Z,-1.35
2022-12-18T13:13:13.397Z,-1.32
2022-12-18T13:15:44.761Z,-1.31
2022-12-18T13:18:17.741Z,-1.32
2022-12-18T13:21:02.978Z,-1.28
2022-12-18T13:23:34.541Z,-1.26
2022-12-18T13:26:07.121Z,-1.25
2022-12-18T13:28:33.461Z,-1.25
2022-12-18T13:31:02.104Z,-1.22
2022-12-18T13:33:34.615Z,-1.22
2022-12-18T13:36:36.501Z,-1.20
2022-12-18T13:39:11.890Z,-1.17
2022-12-18T13:41:39.068Z,-1.18
2022-12-18T13:44:41.499Z,-1.19
2022-12-18T13:47:31.984Z,-1.18
2022-12-18T13:49:59.383Z,-1.16
2022-12-18T13:52:29.666Z,-1.19
2022-12-18T13:54:58.967Z,-1.17
2022-12-18T13:57:36.668Z,-1.16
2022-12-18T14:00:29.451Z,-1.14
2022-12-18T14:02:57.985Z,-1.15
2022-12-18T14:05:30.673Z,-1.13
2022-12-18T14:08:11.519Z,-1.13
2022-12-18T14:10:49.097Z,-1.12
2022-12-18T14:13:28.853Z,-1.11
2022-12-18T14:15:56.960Z,-1.10
2022-12-18T14:18:37.208Z,-1.10
2022-12-18T14:21:05.352Z,-1.10
2022-12-18T14:23:36.346Z,-1.10
2022-12-18T14:26:19.058Z,-1.08
2022-12-18T14:28:45.657Z,-1.06
2022-12-18T14:31:24.384Z,-1.06
2022-12-18T14:33:52.958Z,-1.06
2022-12-18T14:36:28.078Z,-1.06
2022-12-18T14:38:59.267Z,-1.06
2022-12-18T14:41:26.863Z,-1.06
2022-12-18T14:43:55.061Z,-1.06
2022-12-18T14:46:36.297Z,-1.05
2022-12-18T14:49:06.434Z,-1.05
2022-12-18T14:51:34.969Z,-1.06
2022-12-18T14:54:04.961Z,-1.05
2022-12-18T14:56:34.718Z,-1.06
2022-12-18T14:59:04.639Z,-1.07
2022-12-18T15:01:38.246Z,-1.09
2022-12-18T15:04:24.155Z,-1.08
2022-12-18T15:07:12.212Z,-1.07
2022-12-18T15:09:41.361Z,-1.10
2022-12-18T15:12:29.994Z,-1.10
2022-12-18T15:14:56.506Z,-1.10
2022-12-18T15:17:26.115Z,-1.11
2022-12-18T15:20:01.407Z,-1.10
2022-12-18T15:22:30.599Z,-1.09
2022-12-18T15:24:59.003Z,-1.09
2022-12-18T15:27:36.624Z,-1.08
2022-12-18T15:30:19.194Z,-1.09
2022-12-18T15:32:46.235Z,-1.10
2022-12-18T15:35:22.983Z,-1.10
2022-12-18T15:37:51.162Z,-1.11
2022-12-18T15:40:22.859Z,-1.10
2022-12-18T15:43:11.029Z,-1.10
2022-12-18T15:45:37.586Z,-1.10
2022-12-18T15:48:31.002Z,-1.11
2022-12-18T15:50:59.331Z,-1.12
2022-12-18T15:53:30.410Z,-1.11
2022-12-18T15:56:15.240Z,-1.13
2022-12-18T15:58:41.712Z,-1.13
2022-12-18T16:01:10.515Z,-1.14
2022-12-18T16:03:37.248Z,-1.12
2022-12-18T16:06:04.196Z,-1.13
2022-12-18T16:08:31.170Z,-1.11
2022-12-18T16:10:59.185Z,-1.13
2022-12-18T16:13:25.701Z,-1.12
2022-12-18T16:15:52.257Z,-1.12
2022-12-18T16:18:18.743Z,-1.12
2022-12-18T16:20:45.150Z,-1.13
2022-12-18T16:23:11.653Z,-1.14
2022-12-18T16:25:38.167Z,-1.13
2022-12-18T16:28:05.574Z,-1.12
2022-12-18T16:30:38.377Z,-1.12
2022-12-18T16:33:07.487Z,-1.11
2022-12-18T16:35:35.212Z,-1.11
2022-12-18T16:38:01.733Z,-1.10
2022-12-18T16:40:28.556Z,-1.09
2022-12-18T16:42:54.949Z,-1.08
2022-12-18T16:45:21.430Z,-1.08
2022-12-18T16:47:48.011Z,-1.08
2022-12-18T16:50:14.843Z,-1.07
2022-12-18T16:52:41.695Z,-1.08
2022-12-18T16:55:08.667Z,-1.07
2022-12-18T16:57:35.306Z,-1.07
2022-12-18T17:00:05.519Z,-1.07
2022-12-18T17:02:32.967Z,-1.06
2022-12-18T17:04:59.781Z,-1.07
2022-12-18T17:07:27.607Z,-1.07
2022-12-18T17:09:54.810Z,-1.05
2022-12-18T17:12:21.671Z,-1.06
2022-12-18T17:14:48.268Z,-1.06
2022-12-18T17:17:23.734Z,-1.05
2022-12-18T17:19:52.238Z,-1.04
2022-12-18T17:22:19.660Z,-1.05
2022-12-18T17:24:47.018Z,-1.04
2022-12-18T17:27:14.024Z,-1.04
2022-12-18T17:29:46.755Z,-1.02
2022-12-18T17:32:14.876Z,-1.03
2022-12-18T17:34:41.363Z,-1.02
2022-12-18T17:37:09.417Z,-1.02
2022-12-18T17:39:36.754Z,-1.01
2022-12-18T17:42:03.839Z,-1.01
2022-12-18T17:44:31.735Z,-1.01
2022-12-18T17:46:58.173Z,-1.01
2022-12-18T17:49:24.777Z,-1.01
2022-12-18T17:51:51.616Z,-1.00
2022-12-18T17:54:18.079Z,-0.98
2022-12-18T17:56:44.663Z,-0.98
2022-12-18T17:59:12.429Z,-0.98
2022-12-18T18:01:44.492Z,-0.98
2022-12-18T18:04:12.425Z,-0.97
2022-12-18T18:06:39.556Z,-0.97
2022-12-18T18:09:09.942Z,-0.96
2022-12-18T18:12:03.278Z,-0.95
2022-12-18T18:14:30.186Z,-0.94
2022-12-18T18:16:56.898Z,-0.93
2022-12-18T18:19:27.230Z,-0.92
2022-12-18T18:21:53.912Z,-0.92
2022-12-18T18:24:25.906Z,-0.91
2022-12-18T18:26:52.566Z,-0.90
2022-12-18T18:29:23.587Z,-0.89
2022-12-18T18:31:52.381Z,-0.89
2022-12-18T18:34:22.406Z,-0.87
2022-12-18T18:36:48.929Z,-0.86
2022-12-18T18:39:15.661Z,-0.85
2022-12-18T18:41:42.268Z,-0.84
2022-12-18T18:44:12.030Z,-0.83
2022-12-18T18:46:38.539Z,-0.82
2022-12-18T18:49:05.672Z,-0.80
2022-12-18T18:51:35.105Z,-0.79
2022-12-18T18:54:01.938Z,-0.77
2022-12-18T18:59:15.164Z,-0.74
2022-12-18T19:01:41.891Z,-0.72
2022-12-18T19:04:08.777Z,-0.72
2022-12-18T19:06:35.279Z,-0.69
2022-12-18T19:09:04.328Z,-0.67
2022-12-18T19:11:49.461Z,-0.65
2022-12-18T19:14:16.690Z,-0.62
2022-12-18T19:16:45.442Z,-0.60
2022-12-18T19:19:14.171Z,-0.57
2022-12-18T19:21:40.913Z,-0.55
2022-12-18T19:24:07.819Z,-0.55
2022-12-18T19:26:39.814Z,-0.55
2022-12-18T19:29:08.310Z,-0.55
2022-12-18T19:31:36.948Z,-0.52
2022-12-18T19:34:06.488Z,-0.51
2022-12-18T19:36:33.899Z,-0.50
2022-12-18T19:39:01.654Z,-0.48
2022-12-18T19:41:31.382Z,-0.46
2022-12-18T19:44:00.011Z,-0.47
2022-12-18T19:46:28.668Z,-0.46
2022-12-18T19:48:55.330Z,-0.45
2022-12-18T19:51:26.113Z,-0.43
2022-12-18T19:53:58.168Z,-0.42
2022-12-18T19:56:28.065Z,-0.42
2022-12-18T19:58:54.585Z,-0.45
2022-12-18T20:01:23.172Z,-0.49
2022-12-18T20:03:52.246Z,-0.51
2022-12-18T20:06:32.787Z,-0.52
2022-12-18T20:09:02.923Z,-0.55
2022-12-18T20:11:30.898Z,-0.58
2022-12-18T20:14:01.229Z,-0.59
2022-12-18T20:16:28.051Z,-0.61
2022-12-18T20:18:54.862Z,-0.62
2022-12-18T20:21:21.363Z,-0.64
2022-12-18T20:23:48.060Z,-0.64
2022-12-18T20:26:14.770Z,-0.67
2022-12-18T20:28:42.217Z,-0.65
2022-12-18T20:31:10.476Z,-0.65
2022-12-18T20:33:38.642Z,-0.65
2022-12-18T20:36:15.677Z,-0.65
2022-12-18T20:38:43.605Z,-0.66
2022-12-18T20:41:16.497Z,-0.67
2022-12-18T20:43:43.932Z,-0.67
2022-12-18T20:46:13.520Z,-0.70
2022-12-18T20:48:40.638Z,-0.70
2022-12-18T20:51:12.970Z,-0.71
2022-12-18T20:53:41.726Z,-0.72
2022-12-18T20:56:22.333Z,-0.72
2022-12-18T20:58:50.326Z,-0.72
2022-12-18T21:01:20.677Z,-0.75
2022-12-18T21:03:48.070Z,-0.75
2022-12-18T21:06:17.190Z,-0.75
2022-12-18T21:08:44.062Z,-0.74
2022-12-18T21:11:38.773Z,-0.75
2022-12-18T21:14:29.418Z,-0.73
2022-12-18T21:16:56.636Z,-0.72
2022-12-18T21:19:27.018Z,-0.71
2022-12-18T21:21:55.148Z,-0.71
2022-12-18T21:24:22.019Z,-0.72
2022-12-18T21:26:49.307Z,-0.73
2022-12-18T21:29:21.791Z,-0.71
2022-12-18T21:31:49.298Z,-0.71
2022-12-18T21:34:19.382Z,-0.69
2022-12-18T21:36:46.435Z,-0.68
2022-12-18T21:39:14.507Z,-0.69
2022-12-18T21:41:59.687Z,-0.67
2022-12-18T21:44:26.542Z,-0.65
2022-12-18T21:46:56.970Z,-0.64
2022-12-18T21:49:27.011Z,-0.62
2022-12-18T21:51:56.050Z,-0.60
2022-12-18T21:54:23.327Z,-0.60
2022-12-18T21:57:00.031Z,-0.59
2022-12-18T21:59:28.001Z,-0.59
2022-12-18T22:01:57.270Z,-0.57
2022-12-18T22:04:25.257Z,-0.56
2022-12-18T22:06:52.995Z,-0.56
2022-12-18T22:09:22.599Z,-0.55
2022-12-18T22:11:50.303Z,-0.54
2022-12-18T22:14:19.997Z,-0.54
2022-12-18T22:16:47.365Z,-0.54
2022-12-18T22:19:14.880Z,-0.54
2022-12-18T22:21:43.869Z,-0.54
2022-12-18T22:24:24.265Z,-0.52
2022-12-18T22:26:53.030Z,-0.51
2022-12-18T22:29:42.887Z,-0.51
2022-12-18T22:32:12.951Z,-0.51
2022-12-18T22:34:41.705Z,-0.49
2022-12-18T22:37:10.552Z,-0.48
2022-12-18T22:39:37.027Z,-0.46
2022-12-18T22:42:05.053Z,-0.45
2022-12-18T22:44:31.474Z,-0.44
2022-12-18T22:47:06.640Z,-0.43
2022-12-18T22:49:35.690Z,-0.44
2022-12-18T22:52:09.362Z,-0.40
2022-12-18T22:54:36.169Z,-0.40
2022-12-18T22:57:02.646Z,-0.39
2022-12-18T22:59:29.709Z,-0.38
2022-12-18T23:01:59.239Z,-0.37
2022-12-18T23:04:29.285Z,-0.36
2022-12-18T23:07:02.590Z,-0.35
2022-12-18T23:09:29.086Z,-0.32
2022-12-18T23:11:55.553Z,-0.32
2022-12-18T23:14:21.947Z,-0.30
2022-12-18T23:16:48.909Z,-0.28
2022-12-18T23:19:17.226Z,-0.26
2022-12-18T23:21:43.755Z,-0.24
2022-12-18T23:24:10.670Z,-0.25
2022-12-18T23:26:37.270Z,-0.24
2022-12-18T23:29:04.558Z,-0.23
2022-12-18T23:31:34.033Z,-0.22
2022-12-18T23:34:02.001Z,-0.22
2022-12-18T23:36:29.068Z,-0.21
2022-12-18T23:38:59.086Z,-0.20
2022-12-18T23:41:28.560Z,-0.21
2022-12-18T23:43:55.077Z,-0.20
2022-12-18T23:46:31.193Z,-0.19
2022-12-18T23:49:00.760Z,-0.20
2022-12-18T23:51:28.319Z,-0.20
2022-12-18T23:53:57.486Z,-0.18
2022-12-18T23:56:25.514Z,-0.16
2022-12-18T23:58:52.872Z,-0.17
